sensor_id;sensor_type;location;lat;lon;timestamp;pressure;altitude;pressure_sealevel;temperature;humidity
1652;BME280;823;49.028;8.454;2022-07-25T00:01:51;100076.97;;;27.47;41.75
1652;BME280;823;49.028;8.454;2022-07-25T00:06:52;100080.47;;;27.40;41.13
1652;BME280;823;49.028;8.454;2022-07-25T00:11:52;100067.53;;;27.45;41.27
1652;BME280;823;49.028;8.454;2022-07-25T00:16:52;100065.03;;;27.35;41.45
1652;BME280;823;49.028;8.454;2022-07-25T00:21:53;100065.50;;;27.30;41.09
1652;BME280;823;49.028;8.454;2022-07-25T00:26:53;100062.19;;;27.28;41.48
1652;BME280;823;49.028;8.454;2022-07-25T00:31:53;100063.03;;;27.21;41.23
1652;BME280;823;49.028;8.454;2022-07-25T00:36:54;100052.41;;;27.12;41.18
1652;BME280;823;49.028;8.454;2022-07-25T00:41:54;100057.06;;;27.02;41.53
1652;BME280;823;49.028;8.454;2022-07-25T00:46:55;100055.22;;;27.11;41.77
1652;BME280;823;49.028;8.454;2022-07-25T00:51:56;100051.09;;;27.08;42.06
1652;BME280;823;49.028;8.454;2022-07-25T00:56:57;100051.09;;;27.08;42.48
1652;BME280;823;49.028;8.454;2022-07-25T01:01:57;100048.94;;;27.04;43.14
1652;BME280;823;49.028;8.454;2022-07-25T01:06:58;100039.31;;;26.94;43.94
1652;BME280;823;49.028;8.454;2022-07-25T01:11:59;100029.72;;;26.93;42.39
1652;BME280;823;49.028;8.454;2022-07-25T01:17:00;100027.53;;;26.80;42.57
1652;BME280;823;49.028;8.454;2022-07-25T01:22:00;100015.59;;;26.76;42.74
1652;BME280;823;49.028;8.454;2022-07-25T01:27:01;100019.88;;;26.69;43.00
1652;BME280;823;49.028;8.454;2022-07-25T01:32:02;100016.06;;;26.63;43.67
1652;BME280;823;49.028;8.454;2022-07-25T01:37:02;100012.75;;;26.61;43.85
1652;BME280;823;49.028;8.454;2022-07-25T01:42:02;100008.59;;;26.50;43.58
1652;BME280;823;49.028;8.454;2022-07-25T01:47:03;100008.59;;;26.42;43.64
1652;BME280;823;49.028;8.454;2022-07-25T01:52:03;100001.59;;;26.33;44.29
1652;BME280;823;49.028;8.454;2022-07-25T01:57:04;99989.41;;;26.73;43.05
1652;BME280;823;49.028;8.454;2022-07-25T02:02:06;99997.28;;;26.32;44.50
1652;BME280;823;49.028;8.454;2022-07-25T02:07:06;99984.72;;;26.34;44.23
1652;BME280;823;49.028;8.454;2022-07-25T02:12:07;99982.03;;;26.26;44.45
1652;BME280;823;49.028;8.454;2022-07-25T02:17:07;99986.00;;;26.22;44.29
1652;BME280;823;49.028;8.454;2022-07-25T02:22:07;99999.25;;;26.13;44.64
1652;BME280;823;49.028;8.454;2022-07-25T02:27:08;99998.28;;;26.23;44.62
1652;BME280;823;49.028;8.454;2022-07-25T02:32:08;99996.50;;;25.97;44.81
1652;BME280;823;49.028;8.454;2022-07-25T02:37:09;99997.81;;;26.44;43.53
1652;BME280;823;49.028;8.454;2022-07-25T02:42:09;99994.16;;;26.37;43.53
1652;BME280;823;49.028;8.454;2022-07-25T02:47:09;99989.19;;;26.33;43.66
1652;BME280;823;49.028;8.454;2022-07-25T02:52:10;99985.19;;;26.21;43.86
1652;BME280;823;49.028;8.454;2022-07-25T02:57:10;99981.50;;;26.14;44.22
1652;BME280;823;49.028;8.454;2022-07-25T03:02:10;99979.72;;;26.14;44.50
1652;BME280;823;49.028;8.454;2022-07-25T03:07:10;99982.69;;;26.11;44.43
1652;BME280;823;49.028;8.454;2022-07-25T03:12:11;99977.84;;;26.07;44.70
1652;BME280;823;49.028;8.454;2022-07-25T03:17:11;99990.78;;;25.32;46.43
1652;BME280;823;49.028;8.454;2022-07-25T03:22:11;99988.31;;;25.21;46.76
1652;BME280;823;49.028;8.454;2022-07-25T03:27:12;99983.84;;;25.13;47.13
1652;BME280;823;49.028;8.454;2022-07-25T03:32:12;99981.28;;;25.04;47.37
1652;BME280;823;49.028;8.454;2022-07-25T03:37:13;99966.38;;;25.03;47.39
1652;BME280;823;49.028;8.454;2022-07-25T03:42:13;99971.09;;;24.91;48.18
1652;BME280;823;49.028;8.454;2022-07-25T03:47:13;99965.66;;;24.92;47.68
1652;BME280;823;49.028;8.454;2022-07-25T03:52:14;99963.03;;;24.92;47.74
1652;BME280;823;49.028;8.454;2022-07-25T03:57:14;99957.53;;;24.86;47.96
1652;BME280;823;49.028;8.454;2022-07-25T04:02:14;99959.69;;;24.90;47.88
1652;BME280;823;49.028;8.454;2022-07-25T04:07:15;99969.88;;;24.85;47.95
1652;BME280;823;49.028;8.454;2022-07-25T04:12:15;99963.13;;;24.83;48.31
1652;BME280;823;49.028;8.454;2022-07-25T04:17:15;99959.94;;;24.79;48.67
1652;BME280;823;49.028;8.454;2022-07-25T04:22:16;99960.91;;;24.78;48.63
1652;BME280;823;49.028;8.454;2022-07-25T04:27:16;99958.81;;;24.81;48.78
1652;BME280;823;49.028;8.454;2022-07-25T04:32:16;99961.28;;;24.83;47.99
1652;BME280;823;49.028;8.454;2022-07-25T04:37:18;99962.81;;;24.86;48.75
1652;BME280;823;49.028;8.454;2022-07-25T04:42:18;99953.09;;;24.94;48.22
1652;BME280;823;49.028;8.454;2022-07-25T04:47:19;99957.78;;;25.01;48.37
1652;BME280;823;49.028;8.454;2022-07-25T04:52:19;99948.47;;;25.14;47.93
1652;BME280;823;49.028;8.454;2022-07-25T04:57:19;99949.97;;;25.25;47.83
1652;BME280;823;49.028;8.454;2022-07-25T05:02:20;99932.47;;;25.24;47.04
1652;BME280;823;49.028;8.454;2022-07-25T05:07:20;99930.00;;;25.31;47.21
1652;BME280;823;49.028;8.454;2022-07-25T05:12:21;99940.53;;;25.41;47.70
1652;BME280;823;49.028;8.454;2022-07-25T05:17:21;99932.28;;;25.52;47.58
1652;BME280;823;49.028;8.454;2022-07-25T05:22:21;99932.66;;;25.65;47.63
1652;BME280;823;49.028;8.454;2022-07-25T05:27:22;99930.91;;;25.82;46.91
1652;BME280;823;49.028;8.454;2022-07-25T05:32:22;99929.63;;;25.95;46.74
1652;BME280;823;49.028;8.454;2022-07-25T05:37:22;99928.19;;;26.09;46.82
1652;BME280;823;49.028;8.454;2022-07-25T05:42:23;99917.28;;;26.28;46.10
1652;BME280;823;49.028;8.454;2022-07-25T05:47:23;99921.91;;;26.43;45.48
1652;BME280;823;49.028;8.454;2022-07-25T05:52:24;99922.09;;;26.58;43.60
1652;BME280;823;49.028;8.454;2022-07-25T05:57:24;99922.91;;;26.83;44.09
1652;BME280;823;49.028;8.454;2022-07-25T06:02:24;99916.41;;;27.02;42.89
1652;BME280;823;49.028;8.454;2022-07-25T06:07:25;99918.84;;;27.28;43.01
1652;BME280;823;49.028;8.454;2022-07-25T06:12:25;99910.97;;;27.51;42.54
1652;BME280;823;49.028;8.454;2022-07-25T06:17:26;99920.63;;;27.76;41.83
1652;BME280;823;49.028;8.454;2022-07-25T06:22:26;99909.22;;;27.98;41.19
1652;BME280;823;49.028;8.454;2022-07-25T06:27:26;99906.59;;;28.22;41.05
1652;BME280;823;49.028;8.454;2022-07-25T06:32:26;99912.16;;;28.35;39.97
1652;BME280;823;49.028;8.454;2022-07-25T06:37:27;99906.13;;;28.56;39.32
1652;BME280;823;49.028;8.454;2022-07-25T06:42:27;99907.03;;;28.71;38.50
1652;BME280;823;49.028;8.454;2022-07-25T06:47:30;99895.88;;;28.91;38.30
1652;BME280;823;49.028;8.454;2022-07-25T06:52:31;99912.19;;;29.03;37.80
1652;BME280;823;49.028;8.454;2022-07-25T06:57:31;99895.66;;;29.22;37.55
1652;BME280;823;49.028;8.454;2022-07-25T07:02:31;99905.31;;;29.24;37.17
1652;BME280;823;49.028;8.454;2022-07-25T07:07:31;99892.66;;;29.41;36.50
1652;BME280;823;49.028;8.454;2022-07-25T07:12:32;99889.50;;;29.52;37.21
1652;BME280;823;49.028;8.454;2022-07-25T07:17:32;99894.59;;;29.68;36.51
1652;BME280;823;49.028;8.454;2022-07-25T07:22:46;99893.66;;;29.91;35.48
1652;BME280;823;49.028;8.454;2022-07-25T07:27:47;99894.16;;;29.80;35.14
1652;BME280;823;49.028;8.454;2022-07-25T07:32:47;99893.03;;;30.11;35.62
1652;BME280;823;49.028;8.454;2022-07-25T07:37:48;99891.59;;;30.36;35.65
1652;BME280;823;49.028;8.454;2022-07-25T07:42:49;99893.06;;;30.61;34.84
1652;BME280;823;49.028;8.454;2022-07-25T07:47:51;99893.38;;;30.72;34.53
1652;BME280;823;49.028;8.454;2022-07-25T07:52:53;99889.28;;;30.77;33.98
1652;BME280;823;49.028;8.454;2022-07-25T07:57:55;99888.75;;;30.88;33.63
1652;BME280;823;49.028;8.454;2022-07-25T08:02:57;99880.28;;;31.61;32.78
1652;BME280;823;49.028;8.454;2022-07-25T08:07:58;99885.25;;;31.78;32.57
1652;BME280;823;49.028;8.454;2022-07-25T08:12:59;99883.41;;;31.71;32.04
1652;BME280;823;49.028;8.454;2022-07-25T08:17:59;99885.69;;;31.88;31.80
1652;BME280;823;49.028;8.454;2022-07-25T08:23:00;99889.22;;;32.02;31.54
1652;BME280;823;49.028;8.454;2022-07-25T08:28:02;99890.91;;;32.23;31.37
1652;BME280;823;49.028;8.454;2022-07-25T08:33:05;99887.00;;;32.25;31.36
1652;BME280;823;49.028;8.454;2022-07-25T08:38:06;99881.88;;;32.37;30.75
1652;BME280;823;49.028;8.454;2022-07-25T08:43:10;99885.91;;;32.06;31.12
1652;BME280;823;49.028;8.454;2022-07-25T08:48:12;99883.50;;;32.25;31.14
1652;BME280;823;49.028;8.454;2022-07-25T08:53:15;99885.53;;;32.76;31.01
1652;BME280;823;49.028;8.454;2022-07-25T08:58:16;99874.84;;;32.70;31.09
1652;BME280;823;49.028;8.454;2022-07-25T09:03:17;99876.06;;;32.81;30.37
1652;BME280;823;49.028;8.454;2022-07-25T09:08:17;99861.66;;;33.40;29.43
1652;BME280;823;49.028;8.454;2022-07-25T09:13:19;99867.59;;;33.42;29.82
1652;BME280;823;49.028;8.454;2022-07-25T09:18:24;99854.38;;;33.54;29.23
1652;BME280;823;49.028;8.454;2022-07-25T09:23:32;99850.28;;;33.84;28.74
1652;BME280;823;49.028;8.454;2022-07-25T09:28:59;99848.78;;;33.94;28.61
1652;BME280;823;49.028;8.454;2022-07-25T09:34:00;99845.59;;;34.04;27.44
1652;BME280;823;49.028;8.454;2022-07-25T09:39:02;99839.72;;;34.14;27.08
1652;BME280;823;49.028;8.454;2022-07-25T09:44:18;99841.50;;;34.27;27.02
1652;BME280;823;49.028;8.454;2022-07-25T09:49:19;99830.19;;;34.43;26.54
1652;BME280;823;49.028;8.454;2022-07-25T09:54:19;99823.06;;;34.56;26.15
1652;BME280;823;49.028;8.454;2022-07-25T09:59:20;99823.22;;;34.79;24.99
1652;BME280;823;49.028;8.454;2022-07-25T10:04:34;99818.75;;;34.73;24.86
1652;BME280;823;49.028;8.454;2022-07-25T10:09:46;99815.34;;;34.85;24.37
1652;BME280;823;49.028;8.454;2022-07-25T10:20:08;99803.50;;;35.23;23.94
1652;BME280;823;49.028;8.454;2022-07-25T10:25:14;99805.19;;;35.36;23.59
1652;BME280;823;49.028;8.454;2022-07-25T10:30:22;99794.44;;;35.36;24.16
1652;BME280;823;49.028;8.454;2022-07-25T10:35:25;99798.56;;;35.20;24.07
1652;BME280;823;49.028;8.454;2022-07-25T10:45:47;99797.16;;;35.17;24.97
1652;BME280;823;49.028;8.454;2022-07-25T10:50:56;99800.75;;;35.11;25.31
1652;BME280;823;49.028;8.454;2022-07-25T10:56:01;99796.09;;;35.37;25.17
1652;BME280;823;49.028;8.454;2022-07-25T11:01:02;99792.19;;;35.75;24.87
1652;BME280;823;49.028;8.454;2022-07-25T11:06:04;99790.91;;;35.77;24.35
1652;BME280;823;49.028;8.454;2022-07-25T11:11:05;99787.19;;;35.78;23.94
1652;BME280;823;49.028;8.454;2022-07-25T11:16:06;99777.75;;;36.00;24.50
1652;BME280;823;49.028;8.454;2022-07-25T11:21:07;99787.72;;;35.99;24.11
1652;BME280;823;49.028;8.454;2022-07-25T11:26:10;99773.44;;;36.22;23.97
1652;BME280;823;49.028;8.454;2022-07-25T11:31:12;99779.50;;;36.41;23.65
1652;BME280;823;49.028;8.454;2022-07-25T11:36:13;99775.16;;;36.64;23.26
1652;BME280;823;49.028;8.454;2022-07-25T11:41:14;99774.84;;;36.49;22.31
1652;BME280;823;49.028;8.454;2022-07-25T11:46:15;99780.22;;;36.37;23.20
1652;BME280;823;49.028;8.454;2022-07-25T11:51:18;99783.72;;;36.37;23.20
1652;BME280;823;49.028;8.454;2022-07-25T11:56:21;99765.13;;;36.24;23.83
1652;BME280;823;49.028;8.454;2022-07-25T12:01:22;99749.63;;;36.55;23.43
1652;BME280;823;49.028;8.454;2022-07-25T12:06:28;99753.31;;;36.89;23.36
1652;BME280;823;49.028;8.454;2022-07-25T12:11:28;99740.41;;;36.91;23.01
1652;BME280;823;49.028;8.454;2022-07-25T12:16:29;99731.72;;;37.47;22.24
1652;BME280;823;49.028;8.454;2022-07-25T12:21:29;99739.22;;;37.62;21.74
1652;BME280;823;49.028;8.454;2022-07-25T12:26:30;99738.06;;;37.75;22.05
1652;BME280;823;49.028;8.454;2022-07-25T12:31:30;99724.50;;;37.36;22.41
1652;BME280;823;49.028;8.454;2022-07-25T12:36:30;99718.13;;;37.59;22.39
1652;BME280;823;49.028;8.454;2022-07-25T12:41:33;99724.81;;;37.39;22.63
1652;BME280;823;49.028;8.454;2022-07-25T12:46:33;99704.91;;;37.40;23.04
1652;BME280;823;49.028;8.454;2022-07-25T12:51:35;99698.25;;;37.48;22.83
1652;BME280;823;49.028;8.454;2022-07-25T12:56:35;99702.19;;;37.40;22.80
1652;BME280;823;49.028;8.454;2022-07-25T13:01:35;99693.53;;;37.38;22.85
1652;BME280;823;49.028;8.454;2022-07-25T13:06:36;99711.06;;;37.24;23.27
1652;BME280;823;49.028;8.454;2022-07-25T13:11:36;99709.91;;;37.03;23.43
1652;BME280;823;49.028;8.454;2022-07-25T13:16:37;99721.94;;;36.71;24.00
1652;BME280;823;49.028;8.454;2022-07-25T13:21:37;99712.94;;;36.66;24.22
1652;BME280;823;49.028;8.454;2022-07-25T13:26:38;99716.50;;;36.54;24.39
1652;BME280;823;49.028;8.454;2022-07-25T13:31:39;99712.50;;;36.57;24.47
1652;BME280;823;49.028;8.454;2022-07-25T13:36:40;99720.81;;;36.55;25.03
1652;BME280;823;49.028;8.454;2022-07-25T13:41:40;99713.97;;;36.76;24.59
1652;BME280;823;49.028;8.454;2022-07-25T13:46:41;99700.41;;;37.00;23.70
1652;BME280;823;49.028;8.454;2022-07-25T13:51:42;99700.47;;;36.88;24.09
1652;BME280;823;49.028;8.454;2022-07-25T13:56:44;99705.47;;;36.96;23.39
1652;BME280;823;49.028;8.454;2022-07-25T14:01:44;99696.44;;;37.03;23.04
1652;BME280;823;49.028;8.454;2022-07-25T14:06:46;99688.16;;;37.09;23.56
1652;BME280;823;49.028;8.454;2022-07-25T14:11:50;99695.66;;;36.78;23.18
1652;BME280;823;49.028;8.454;2022-07-25T14:16:51;99693.63;;;36.57;23.86
1652;BME280;823;49.028;8.454;2022-07-25T14:21:52;99695.09;;;36.47;23.95
1652;BME280;823;49.028;8.454;2022-07-25T14:26:52;99703.66;;;36.21;28.28
1652;BME280;823;49.028;8.454;2022-07-25T14:31:54;99719.22;;;35.71;28.55
1652;BME280;823;49.028;8.454;2022-07-25T14:36:54;99738.81;;;35.36;31.37
1652;BME280;823;49.028;8.454;2022-07-25T14:41:55;99730.97;;;35.04;31.36
1652;BME280;823;49.028;8.454;2022-07-25T14:46:56;99728.25;;;34.92;30.79
1652;BME280;823;49.028;8.454;2022-07-25T14:51:58;99726.13;;;34.83;29.00
1652;BME280;823;49.028;8.454;2022-07-25T14:56:58;99722.72;;;34.87;28.20
1652;BME280;823;49.028;8.454;2022-07-25T15:01:59;99726.91;;;35.13;27.36
1652;BME280;823;49.028;8.454;2022-07-25T15:06:59;99715.59;;;35.23;27.29
1652;BME280;823;49.028;8.454;2022-07-25T15:12:00;99706.22;;;35.44;27.45
1652;BME280;823;49.028;8.454;2022-07-25T15:17:00;99714.66;;;35.60;25.83
1652;BME280;823;49.028;8.454;2022-07-25T15:22:00;99708.84;;;35.87;25.46
1652;BME280;823;49.028;8.454;2022-07-25T15:27:01;99701.34;;;35.89;24.61
1652;BME280;823;49.028;8.454;2022-07-25T15:32:01;99690.81;;;35.87;24.75
1652;BME280;823;49.028;8.454;2022-07-25T15:37:04;99705.81;;;35.95;25.62
1652;BME280;823;49.028;8.454;2022-07-25T15:42:04;99696.22;;;35.99;25.49
1652;BME280;823;49.028;8.454;2022-07-25T15:47:05;99686.13;;;35.94;24.08
1652;BME280;823;49.028;8.454;2022-07-25T15:52:06;99679.81;;;35.89;24.91
1652;BME280;823;49.028;8.454;2022-07-25T15:57:06;99697.84;;;35.88;25.11
1652;BME280;823;49.028;8.454;2022-07-25T16:02:06;99696.91;;;35.83;24.73
1652;BME280;823;49.028;8.454;2022-07-25T16:07:12;99700.91;;;35.92;24.90
1652;BME280;823;49.028;8.454;2022-07-25T16:12:12;99701.91;;;35.79;24.84
1652;BME280;823;49.028;8.454;2022-07-25T16:17:12;99700.41;;;35.71;24.58
1652;BME280;823;49.028;8.454;2022-07-25T16:22:13;99696.19;;;35.52;24.18
1652;BME280;823;49.028;8.454;2022-07-25T16:27:14;99700.59;;;35.34;24.25
1652;BME280;823;49.028;8.454;2022-07-25T16:32:14;99697.47;;;35.49;23.98
1652;BME280;823;49.028;8.454;2022-07-25T16:37:14;99700.72;;;35.39;24.32
1652;BME280;823;49.028;8.454;2022-07-25T16:42:15;99711.25;;;35.41;23.48
1652;BME280;823;49.028;8.454;2022-07-25T16:47:15;99721.41;;;35.39;23.41
1652;BME280;823;49.028;8.454;2022-07-25T16:52:15;99731.69;;;35.42;24.19
1652;BME280;823;49.028;8.454;2022-07-25T16:57:16;99738.69;;;35.31;24.34
1652;BME280;823;49.028;8.454;2022-07-25T17:02:16;99751.81;;;35.21;24.33
1652;BME280;823;49.028;8.454;2022-07-25T17:07:16;99766.09;;;34.91;25.10
1652;BME280;823;49.028;8.454;2022-07-25T17:12:17;99758.47;;;34.88;24.61
1652;BME280;823;49.028;8.454;2022-07-25T17:17:17;99770.84;;;34.70;25.24
1652;BME280;823;49.028;8.454;2022-07-25T17:22:18;99789.63;;;34.52;24.84
1652;BME280;823;49.028;8.454;2022-07-25T17:27:19;99794.81;;;34.28;24.96
1652;BME280;823;49.028;8.454;2022-07-25T17:32:19;99802.09;;;34.02;24.98
1652;BME280;823;49.028;8.454;2022-07-25T17:37:19;99805.56;;;33.77;25.07
1652;BME280;823;49.028;8.454;2022-07-25T17:42:20;99804.94;;;33.75;25.05
1652;BME280;823;49.028;8.454;2022-07-25T17:47:23;99810.63;;;33.60;25.77
1652;BME280;823;49.028;8.454;2022-07-25T17:52:24;99824.34;;;33.39;25.66
1652;BME280;823;49.028;8.454;2022-07-25T17:57:24;99831.44;;;33.13;25.16
1652;BME280;823;49.028;8.454;2022-07-25T18:02:25;99842.59;;;33.03;25.81
1652;BME280;823;49.028;8.454;2022-07-25T18:07:25;99846.41;;;32.82;25.94
1652;BME280;823;49.028;8.454;2022-07-25T18:12:26;99854.84;;;32.59;26.11
1652;BME280;823;49.028;8.454;2022-07-25T18:17:27;99868.03;;;32.60;26.15
1652;BME280;823;49.028;8.454;2022-07-25T18:22:27;99865.81;;;32.24;26.50
1652;BME280;823;49.028;8.454;2022-07-25T18:27:28;99872.16;;;32.16;26.53
1652;BME280;823;49.028;8.454;2022-07-25T18:32:28;99884.28;;;32.05;26.97
1652;BME280;823;49.028;8.454;2022-07-25T18:37:29;99891.66;;;31.97;27.04
1652;BME280;823;49.028;8.454;2022-07-25T18:42:30;99890.19;;;31.87;27.43
1652;BME280;823;49.028;8.454;2022-07-25T18:47:31;99887.75;;;31.92;26.92
1652;BME280;823;49.028;8.454;2022-07-25T18:52:32;99896.81;;;31.85;27.11
1652;BME280;823;49.028;8.454;2022-07-25T18:57:36;99911.75;;;31.66;27.51
1652;BME280;823;49.028;8.454;2022-07-25T19:02:37;99917.50;;;31.69;28.04
1652;BME280;823;49.028;8.454;2022-07-25T19:07:37;99924.00;;;31.47;28.63
1652;BME280;823;49.028;8.454;2022-07-25T19:12:38;99936.25;;;31.34;28.21
1652;BME280;823;49.028;8.454;2022-07-25T19:17:39;99939.75;;;31.28;28.47
1652;BME280;823;49.028;8.454;2022-07-25T19:22:39;99952.56;;;31.11;27.44
1652;BME280;823;49.028;8.454;2022-07-25T19:27:39;99945.81;;;31.09;29.12
1652;BME280;823;49.028;8.454;2022-07-25T19:32:40;99963.97;;;30.98;31.35
1652;BME280;823;49.028;8.454;2022-07-25T19:37:40;99963.06;;;30.84;32.33
1652;BME280;823;49.028;8.454;2022-07-25T19:42:41;99971.28;;;30.61;32.63
1652;BME280;823;49.028;8.454;2022-07-25T19:47:41;99978.16;;;30.49;32.10
1652;BME280;823;49.028;8.454;2022-07-25T19:52:42;99977.16;;;30.35;33.38
1652;BME280;823;49.028;8.454;2022-07-25T19:57:43;99976.59;;;30.18;32.44
1652;BME280;823;49.028;8.454;2022-07-25T20:02:44;99986.09;;;30.05;32.22
1652;BME280;823;49.028;8.454;2022-07-25T20:07:44;99996.06;;;29.97;34.47
1652;BME280;823;49.028;8.454;2022-07-25T20:12:44;100001.69;;;29.87;35.60
1652;BME280;823;49.028;8.454;2022-07-25T20:17:45;100018.75;;;29.78;34.45
1652;BME280;823;49.028;8.454;2022-07-25T20:22:45;100025.00;;;29.70;32.28
1652;BME280;823;49.028;8.454;2022-07-25T20:27:46;100045.97;;;29.58;33.67
1652;BME280;823;49.028;8.454;2022-07-25T20:32:48;100055.91;;;29.49;34.24
1652;BME280;823;49.028;8.454;2022-07-25T20:37:48;100055.31;;;29.39;33.85
1652;BME280;823;49.028;8.454;2022-07-25T20:42:49;100069.63;;;29.23;36.46
1652;BME280;823;49.028;8.454;2022-07-25T20:47:49;100084.94;;;29.21;36.31
1652;BME280;823;49.028;8.454;2022-07-25T20:52:49;100093.84;;;29.13;34.28
1652;BME280;823;49.028;8.454;2022-07-25T20:57:50;100093.06;;;29.04;34.81
1652;BME280;823;49.028;8.454;2022-07-25T21:02:50;100097.50;;;28.89;36.20
1652;BME280;823;49.028;8.454;2022-07-25T21:07:51;100100.53;;;28.86;37.59
1652;BME280;823;49.028;8.454;2022-07-25T21:12:51;100103.13;;;28.71;36.74
1652;BME280;823;49.028;8.454;2022-07-25T21:17:54;100113.41;;;28.74;35.78
1652;BME280;823;49.028;8.454;2022-07-25T21:22:54;100126.94;;;28.56;38.09
1652;BME280;823;49.028;8.454;2022-07-25T21:27:55;100129.59;;;28.56;34.44
1652;BME280;823;49.028;8.454;2022-07-25T21:32:55;100122.47;;;28.57;36.25
1652;BME280;823;49.028;8.454;2022-07-25T21:37:55;100125.47;;;28.53;36.24
1652;BME280;823;49.028;8.454;2022-07-25T21:42:57;100130.69;;;28.47;37.30
1652;BME280;823;49.028;8.454;2022-07-25T21:47:58;100128.16;;;28.45;35.85
1652;BME280;823;49.028;8.454;2022-07-25T21:52:58;100129.91;;;28.30;36.19
1652;BME280;823;49.028;8.454;2022-07-25T21:57:58;100141.38;;;28.30;36.59
1652;BME280;823;49.028;8.454;2022-07-25T22:02:59;100152.34;;;28.27;36.35
1652;BME280;823;49.028;8.454;2022-07-25T22:07:59;100156.50;;;28.30;36.49
1652;BME280;823;49.028;8.454;2022-07-25T22:13:00;100157.31;;;28.39;35.79
1652;BME280;823;49.028;8.454;2022-07-25T22:18:00;100167.06;;;28.46;36.02
1652;BME280;823;49.028;8.454;2022-07-25T22:23:00;100169.28;;;28.74;34.92
1652;BME280;823;49.028;8.454;2022-07-25T22:28:01;100157.53;;;28.60;35.01
1652;BME280;823;49.028;8.454;2022-07-25T22:33:01;100170.66;;;28.62;35.68
1652;BME280;823;49.028;8.454;2022-07-25T22:38:02;100159.19;;;28.61;35.42
1652;BME280;823;49.028;8.454;2022-07-25T22:43:02;100149.88;;;28.65;35.06
1652;BME280;823;49.028;8.454;2022-07-25T22:48:03;100154.69;;;28.62;35.11
1652;BME280;823;49.028;8.454;2022-07-25T22:53:03;100166.19;;;28.62;35.84
1652;BME280;823;49.028;8.454;2022-07-25T22:58:04;100168.16;;;28.60;34.35
1652;BME280;823;49.028;8.454;2022-07-25T23:03:04;100166.50;;;28.59;35.08
1652;BME280;823;49.028;8.454;2022-07-25T23:08:05;100170.81;;;28.60;34.94
1652;BME280;823;49.028;8.454;2022-07-25T23:13:05;100173.53;;;28.52;35.18
1652;BME280;823;49.028;8.454;2022-07-25T23:18:05;100165.91;;;28.49;35.21
1652;BME280;823;49.028;8.454;2022-07-25T23:23:06;100167.28;;;28.36;35.15
1652;BME280;823;49.028;8.454;2022-07-25T23:28:06;100186.38;;;28.48;35.58
1652;BME280;823;49.028;8.454;2022-07-25T23:33:07;100185.03;;;28.44;35.86
1652;BME280;823;49.028;8.454;2022-07-25T23:38:07;100189.91;;;28.32;35.49
1652;BME280;823;49.028;8.454;2022-07-25T23:43:07;100186.91;;;28.27;35.23
1652;BME280;823;49.028;8.454;2022-07-25T23:48:08;100191.59;;;28.25;35.24
1652;BME280;823;49.028;8.454;2022-07-25T23:53:08;100191.25;;;28.28;35.49
1652;BME280;823;49.028;8.454;2022-07-25T23:58:08;100192.59;;;28.24;35.54
